sensor_id;sensor_type;location;lat;lon;timestamp;temperature;humidity
17849;DHT22;9050;48.746;9.232;2023-03-14T00:01:54;9.20;99.90
17849;DHT22;9050;48.746;9.232;2023-03-14T00:04:21;9.20;99.90
17849;DHT22;9050;48.746;9.232;2023-03-14T00:06:49;9.20;99.90
17849;DHT22;9050;48.746;9.232;2023-03-14T00:09:16;9.20;99.90
17849;DHT22;9050;48.746;9.232;2023-03-14T00:11:43;9.10;99.90
17849;DHT22;9050;48.746;9.232;2023-03-14T00:14:10;9.20;99.90
17849;DHT22;9050;48.746;9.232;2023-03-14T00:16:37;9.10;99.90
17849;DHT22;9050;48.746;9.232;2023-03-14T00:19:04;9.10;99.90
17849;DHT22;9050;48.746;9.232;2023-03-14T00:21:31;9.10;99.90
17849;DHT22;9050;48.746;9.232;2023-03-14T00:23:59;9.20;99.90
17849;DHT22;9050;48.746;9.232;2023-03-14T00:26:26;9.10;99.90
17849;DHT22;9050;48.746;9.232;2023-03-14T00:28:53;9.10;99.90
17849;DHT22;9050;48.746;9.232;2023-03-14T00:31:20;9.10;99.90
17849;DHT22;9050;48.746;9.232;2023-03-14T00:33:48;9.10;99.90
17849;DHT22;9050;48.746;9.232;2023-03-14T00:36:16;9.10;99.90
17849;DHT22;9050;48.746;9.232;2023-03-14T00:38:44;9.20;99.90
17849;DHT22;9050;48.746;9.232;2023-03-14T00:41:15;9.20;99.90
17849;DHT22;9050;48.746;9.232;2023-03-14T00:43:43;9.20;99.90
17849;DHT22;9050;48.746;9.232;2023-03-14T00:46:10;9.20;99.90
17849;DHT22;9050;48.746;9.232;2023-03-14T00:48:37;9.20;99.90
17849;DHT22;9050;48.746;9.232;2023-03-14T00:51:06;9.20;99.90
17849;DHT22;9050;48.746;9.232;2023-03-14T00:53:36;9.20;99.90
17849;DHT22;9050;48.746;9.232;2023-03-14T00:56:04;9.20;99.90
17849;DHT22;9050;48.746;9.232;2023-03-14T00:58:33;9.20;99.90
17849;DHT22;9050;48.746;9.232;2023-03-14T01:01:05;9.20;99.90
17849;DHT22;9050;48.746;9.232;2023-03-14T01:03:32;9.20;99.90
17849;DHT22;9050;48.746;9.232;2023-03-14T01:06:07;9.20;99.90
17849;DHT22;9050;48.746;9.232;2023-03-14T01:08:34;9.20;99.90
17849;DHT22;9050;48.746;9.232;2023-03-14T01:11:05;9.10;99.90
17849;DHT22;9050;48.746;9.232;2023-03-14T01:13:34;9.10;99.90
17849;DHT22;9050;48.746;9.232;2023-03-14T01:16:02;9.20;99.90
17849;DHT22;9050;48.746;9.232;2023-03-14T01:18:29;9.20;99.90
17849;DHT22;9050;48.746;9.232;2023-03-14T01:20:56;9.20;99.90
17849;DHT22;9050;48.746;9.232;2023-03-14T01:23:23;9.20;99.90
17849;DHT22;9050;48.746;9.232;2023-03-14T01:25:50;9.30;99.90
17849;DHT22;9050;48.746;9.232;2023-03-14T01:28:17;9.30;99.90
17849;DHT22;9050;48.746;9.232;2023-03-14T01:30:45;9.20;99.90
17849;DHT22;9050;48.746;9.232;2023-03-14T01:33:12;9.20;99.90
17849;DHT22;9050;48.746;9.232;2023-03-14T01:35:40;9.20;99.90
17849;DHT22;9050;48.746;9.232;2023-03-14T01:38:07;9.20;99.90
17849;DHT22;9050;48.746;9.232;2023-03-14T01:40:34;9.20;99.90
17849;DHT22;9050;48.746;9.232;2023-03-14T01:43:14;9.20;99.90
17849;DHT22;9050;48.746;9.232;2023-03-14T01:49:00;9.00;99.90
17849;DHT22;9050;48.746;9.232;2023-03-14T01:51:31;9.00;99.90
17849;DHT22;9050;48.746;9.232;2023-03-14T01:54:07;9.00;99.90
17849;DHT22;9050;48.746;9.232;2023-03-14T01:56:36;9.00;99.90
17849;DHT22;9050;48.746;9.232;2023-03-14T01:59:04;9.00;99.90
17849;DHT22;9050;48.746;9.232;2023-03-14T02:01:33;9.10;99.90
17849;DHT22;9050;48.746;9.232;2023-03-14T02:04:05;9.00;99.90
17849;DHT22;9050;48.746;9.232;2023-03-14T02:06:40;9.00;99.90
17849;DHT22;9050;48.746;9.232;2023-03-14T02:09:08;9.00;99.90
17849;DHT22;9050;48.746;9.232;2023-03-14T02:11:35;9.00;99.90
17849;DHT22;9050;48.746;9.232;2023-03-14T02:14:03;9.00;99.90
17849;DHT22;9050;48.746;9.232;2023-03-14T02:16:31;9.00;99.90
17849;DHT22;9050;48.746;9.232;2023-03-14T02:18:57;8.90;99.90
17849;DHT22;9050;48.746;9.232;2023-03-14T02:21:35;8.90;99.90
17849;DHT22;9050;48.746;9.232;2023-03-14T02:24:09;8.90;99.90
17849;DHT22;9050;48.746;9.232;2023-03-14T02:26:40;8.90;99.90
17849;DHT22;9050;48.746;9.232;2023-03-14T02:29:11;8.90;99.90
17849;DHT22;9050;48.746;9.232;2023-03-14T02:31:38;8.90;99.90
17849;DHT22;9050;48.746;9.232;2023-03-14T02:34:06;8.90;99.90
17849;DHT22;9050;48.746;9.232;2023-03-14T02:36:33;8.90;99.90
17849;DHT22;9050;48.746;9.232;2023-03-14T02:39:05;8.90;99.90
17849;DHT22;9050;48.746;9.232;2023-03-14T02:41:34;8.90;99.90
17849;DHT22;9050;48.746;9.232;2023-03-14T02:44:01;8.90;99.90
17849;DHT22;9050;48.746;9.232;2023-03-14T02:46:29;8.90;99.90
17849;DHT22;9050;48.746;9.232;2023-03-14T02:48:59;8.80;99.90
17849;DHT22;9050;48.746;9.232;2023-03-14T02:51:28;8.80;99.90
17849;DHT22;9050;48.746;9.232;2023-03-14T02:53:56;8.90;99.90
17849;DHT22;9050;48.746;9.232;2023-03-14T02:56:22;8.90;99.90
17849;DHT22;9050;48.746;9.232;2023-03-14T02:58:49;8.90;99.90
17849;DHT22;9050;48.746;9.232;2023-03-14T03:01:16;8.90;99.90
17849;DHT22;9050;48.746;9.232;2023-03-14T03:03:45;8.80;99.90
17849;DHT22;9050;48.746;9.232;2023-03-14T03:06:12;8.80;99.90
17849;DHT22;9050;48.746;9.232;2023-03-14T03:08:38;8.80;99.90
17849;DHT22;9050;48.746;9.232;2023-03-14T03:11:06;8.70;99.90
17849;DHT22;9050;48.746;9.232;2023-03-14T03:13:33;8.70;99.90
17849;DHT22;9050;48.746;9.232;2023-03-14T03:16:00;8.70;99.90
17849;DHT22;9050;48.746;9.232;2023-03-14T03:18:27;8.70;99.90
17849;DHT22;9050;48.746;9.232;2023-03-14T03:20:59;8.70;99.90
17849;DHT22;9050;48.746;9.232;2023-03-14T03:23:25;8.70;99.90
17849;DHT22;9050;48.746;9.232;2023-03-14T03:25:52;8.60;99.90
17849;DHT22;9050;48.746;9.232;2023-03-14T03:28:19;8.60;99.90
17849;DHT22;9050;48.746;9.232;2023-03-14T03:30:47;8.60;99.90
17849;DHT22;9050;48.746;9.232;2023-03-14T03:33:14;8.60;99.90
17849;DHT22;9050;48.746;9.232;2023-03-14T03:35:45;8.70;99.90
17849;DHT22;9050;48.746;9.232;2023-03-14T03:38:14;8.70;99.90
17849;DHT22;9050;48.746;9.232;2023-03-14T03:40:42;8.60;99.90
17849;DHT22;9050;48.746;9.232;2023-03-14T03:43:09;8.60;99.90
17849;DHT22;9050;48.746;9.232;2023-03-14T03:45:36;8.60;99.90
17849;DHT22;9050;48.746;9.232;2023-03-14T03:48:04;8.60;99.90
17849;DHT22;9050;48.746;9.232;2023-03-14T03:50:31;8.60;99.90
17849;DHT22;9050;48.746;9.232;2023-03-14T03:52:58;8.60;99.90
17849;DHT22;9050;48.746;9.232;2023-03-14T03:55:26;8.60;99.90
17849;DHT22;9050;48.746;9.232;2023-03-14T03:57:54;8.60;99.90
17849;DHT22;9050;48.746;9.232;2023-03-14T04:00:21;8.50;99.90
17849;DHT22;9050;48.746;9.232;2023-03-14T04:02:48;8.50;99.90
17849;DHT22;9050;48.746;9.232;2023-03-14T04:05:15;8.50;99.90
17849;DHT22;9050;48.746;9.232;2023-03-14T04:07:42;8.50;99.90
17849;DHT22;9050;48.746;9.232;2023-03-14T04:10:10;8.50;99.90
17849;DHT22;9050;48.746;9.232;2023-03-14T04:12:38;8.50;99.90
17849;DHT22;9050;48.746;9.232;2023-03-14T04:15:06;8.40;99.90
17849;DHT22;9050;48.746;9.232;2023-03-14T04:17:33;8.40;99.90
17849;DHT22;9050;48.746;9.232;2023-03-14T04:20:00;8.40;99.90
17849;DHT22;9050;48.746;9.232;2023-03-14T04:22:28;8.30;99.90
17849;DHT22;9050;48.746;9.232;2023-03-14T04:24:55;8.40;99.90
17849;DHT22;9050;48.746;9.232;2023-03-14T04:27:22;8.40;99.90
17849;DHT22;9050;48.746;9.232;2023-03-14T04:29:50;8.40;99.90
17849;DHT22;9050;48.746;9.232;2023-03-14T04:32:18;8.40;99.90
17849;DHT22;9050;48.746;9.232;2023-03-14T04:34:44;8.40;99.90
17849;DHT22;9050;48.746;9.232;2023-03-14T04:37:11;8.40;99.90
17849;DHT22;9050;48.746;9.232;2023-03-14T04:39:38;8.40;99.90
17849;DHT22;9050;48.746;9.232;2023-03-14T04:42:05;8.30;99.90
17849;DHT22;9050;48.746;9.232;2023-03-14T04:44:32;8.30;99.90
17849;DHT22;9050;48.746;9.232;2023-03-14T04:47:01;8.30;99.90
17849;DHT22;9050;48.746;9.232;2023-03-14T04:49:27;8.30;99.90
17849;DHT22;9050;48.746;9.232;2023-03-14T04:51:54;8.20;99.90
17849;DHT22;9050;48.746;9.232;2023-03-14T04:54:21;8.20;99.90
17849;DHT22;9050;48.746;9.232;2023-03-14T04:56:49;8.20;99.90
17849;DHT22;9050;48.746;9.232;2023-03-14T04:59:15;8.20;99.90
17849;DHT22;9050;48.746;9.232;2023-03-14T05:01:42;8.20;99.90
17849;DHT22;9050;48.746;9.232;2023-03-14T05:04:11;8.20;99.90
17849;DHT22;9050;48.746;9.232;2023-03-14T05:06:38;8.30;99.90
17849;DHT22;9050;48.746;9.232;2023-03-14T05:09:05;8.20;99.90
17849;DHT22;9050;48.746;9.232;2023-03-14T05:11:32;8.20;99.90
17849;DHT22;9050;48.746;9.232;2023-03-14T05:13:59;8.20;99.90
17849;DHT22;9050;48.746;9.232;2023-03-14T05:16:26;8.20;99.90
17849;DHT22;9050;48.746;9.232;2023-03-14T05:18:53;8.20;99.90
17849;DHT22;9050;48.746;9.232;2023-03-14T05:21:21;8.20;99.90
17849;DHT22;9050;48.746;9.232;2023-03-14T05:23:48;8.20;99.90
17849;DHT22;9050;48.746;9.232;2023-03-14T05:26:15;8.20;99.90
17849;DHT22;9050;48.746;9.232;2023-03-14T05:28:42;8.20;99.90
17849;DHT22;9050;48.746;9.232;2023-03-14T05:31:10;8.20;99.90
17849;DHT22;9050;48.746;9.232;2023-03-14T05:33:37;8.20;99.90
17849;DHT22;9050;48.746;9.232;2023-03-14T05:36:04;8.20;99.90
17849;DHT22;9050;48.746;9.232;2023-03-14T05:38:33;8.20;99.90
17849;DHT22;9050;48.746;9.232;2023-03-14T05:41:00;8.20;99.90
17849;DHT22;9050;48.746;9.232;2023-03-14T05:43:27;8.20;99.90
17849;DHT22;9050;48.746;9.232;2023-03-14T05:45:54;8.30;99.90
17849;DHT22;9050;48.746;9.232;2023-03-14T05:48:21;8.30;99.90
17849;DHT22;9050;48.746;9.232;2023-03-14T05:50:53;8.30;99.90
17849;DHT22;9050;48.746;9.232;2023-03-14T05:53:20;8.30;99.90
17849;DHT22;9050;48.746;9.232;2023-03-14T05:55:51;8.40;99.90
17849;DHT22;9050;48.746;9.232;2023-03-14T05:58:18;8.40;99.90
17849;DHT22;9050;48.746;9.232;2023-03-14T06:00:45;8.40;99.90
17849;DHT22;9050;48.746;9.232;2023-03-14T06:03:12;8.30;99.90
17849;DHT22;9050;48.746;9.232;2023-03-14T06:05:38;8.30;99.90
17849;DHT22;9050;48.746;9.232;2023-03-14T22:08:55;4.80;99.90
17849;DHT22;9050;48.746;9.232;2023-03-14T22:11:22;4.60;99.90
17849;DHT22;9050;48.746;9.232;2023-03-14T22:13:49;4.60;99.90
17849;DHT22;9050;48.746;9.232;2023-03-14T22:16:16;4.60;99.90
17849;DHT22;9050;48.746;9.232;2023-03-14T22:18:43;4.50;99.90
17849;DHT22;9050;48.746;9.232;2023-03-14T22:21:10;4.50;99.90
17849;DHT22;9050;48.746;9.232;2023-03-14T22:23:36;4.60;99.90
17849;DHT22;9050;48.746;9.232;2023-03-14T22:26:05;4.60;99.90
17849;DHT22;9050;48.746;9.232;2023-03-14T22:28:31;4.50;99.90
17849;DHT22;9050;48.746;9.232;2023-03-14T22:30:58;4.60;99.90
17849;DHT22;9050;48.746;9.232;2023-03-14T22:33:25;4.50;99.90
17849;DHT22;9050;48.746;9.232;2023-03-14T22:35:52;4.60;99.90
17849;DHT22;9050;48.746;9.232;2023-03-14T22:38:19;4.60;99.90
17849;DHT22;9050;48.746;9.232;2023-03-14T22:40:46;4.40;99.90
17849;DHT22;9050;48.746;9.232;2023-03-14T22:43:14;3.80;99.90
17849;DHT22;9050;48.746;9.232;2023-03-14T22:45:41;3.30;99.90
17849;DHT22;9050;48.746;9.232;2023-03-14T22:48:08;2.80;99.90
17849;DHT22;9050;48.746;9.232;2023-03-14T22:50:36;2.60;99.90
17849;DHT22;9050;48.746;9.232;2023-03-14T22:53:04;2.40;99.90
17849;DHT22;9050;48.746;9.232;2023-03-14T22:55:31;2.40;99.90
17849;DHT22;9050;48.746;9.232;2023-03-14T22:57:57;2.20;99.90
17849;DHT22;9050;48.746;9.232;2023-03-14T23:00:26;2.00;99.90
17849;DHT22;9050;48.746;9.232;2023-03-14T23:02:54;1.90;99.90
17849;DHT22;9050;48.746;9.232;2023-03-14T23:05:21;1.80;99.90
17849;DHT22;9050;48.746;9.232;2023-03-14T23:07:48;1.80;99.90
17849;DHT22;9050;48.746;9.232;2023-03-14T23:10:15;1.70;99.90
17849;DHT22;9050;48.746;9.232;2023-03-14T23:12:42;1.60;99.90
17849;DHT22;9050;48.746;9.232;2023-03-14T23:15:11;1.60;99.90
17849;DHT22;9050;48.746;9.232;2023-03-14T23:17:42;1.60;99.90
17849;DHT22;9050;48.746;9.232;2023-03-14T23:20:10;1.50;99.90
17849;DHT22;9050;48.746;9.232;2023-03-14T23:22:37;1.50;99.90
17849;DHT22;9050;48.746;9.232;2023-03-14T23:25:05;1.40;99.90
17849;DHT22;9050;48.746;9.232;2023-03-14T23:27:32;1.40;99.90
17849;DHT22;9050;48.746;9.232;2023-03-14T23:29:59;1.40;99.90
17849;DHT22;9050;48.746;9.232;2023-03-14T23:32:26;1.30;99.90
17849;DHT22;9050;48.746;9.232;2023-03-14T23:34:55;1.30;99.90
17849;DHT22;9050;48.746;9.232;2023-03-14T23:37:22;1.30;99.90
17849;DHT22;9050;48.746;9.232;2023-03-14T23:39:50;1.30;99.90
17849;DHT22;9050;48.746;9.232;2023-03-14T23:42:17;1.30;99.90
17849;DHT22;9050;48.746;9.232;2023-03-14T23:44:44;1.30;99.90
17849;DHT22;9050;48.746;9.232;2023-03-14T23:47:11;1.20;99.90
17849;DHT22;9050;48.746;9.232;2023-03-14T23:49:38;1.30;99.90
17849;DHT22;9050;48.746;9.232;2023-03-14T23:52:07;1.30;99.90
17849;DHT22;9050;48.746;9.232;2023-03-14T23:54:34;1.30;99.90
17849;DHT22;9050;48.746;9.232;2023-03-14T23:57:01;1.20;99.90
17849;DHT22;9050;48.746;9.232;2023-03-14T23:59:29;1.20;99.90
